sensor_id;sensor_type;location;lat;lon;timestamp;pressure;altitude;pressure_sealevel;temperature;humidity
75424;BME280;64005;55.160;36.002;2023-07-28T01:01:02;97631.25;;;18.94;83.68
75424;BME280;64005;55.160;36.002;2023-07-28T01:03:43;97623.59;;;18.94;83.73
75424;BME280;64005;55.160;36.002;2023-07-28T09:34:25;97920.81;;;21.74;70.05
75424;BME280;64005;55.160;36.002;2023-07-28T09:37:13;97929.41;;;21.71;70.07
75424;BME280;64005;55.160;36.002;2023-07-28T09:47:30;97931.78;;;21.33;70.65
75424;BME280;64005;55.160;36.002;2023-07-28T16:58:07;98122.03;;;18.12;68.13
75424;BME280;64005;55.160;36.002;2023-07-28T18:23:59;98179.97;;;17.42;71.58
75424;BME280;64005;55.160;36.002;2023-07-28T20:05:50;98194.66;;;16.54;75.63
75424;BME280;64005;55.160;36.002;2023-07-28T20:11:06;98212.75;;;16.60;75.99
75424;BME280;64005;55.160;36.002;2023-07-28T20:23:57;98229.50;;;16.46;76.49
75424;BME280;64005;55.160;36.002;2023-07-28T20:26:25;98225.47;;;16.40;76.31
75424;BME280;64005;55.160;36.002;2023-07-28T20:28:53;98230.31;;;16.47;76.38
75424;BME280;64005;55.160;36.002;2023-07-28T20:31:21;98238.34;;;16.52;76.18
75424;BME280;64005;55.160;36.002;2023-07-28T20:33:49;98243.53;;;16.50;76.29
75424;BME280;64005;55.160;36.002;2023-07-28T20:36:17;98237.13;;;16.46;76.46
75424;BME280;64005;55.160;36.002;2023-07-28T20:38:45;98230.28;;;16.43;76.48
75424;BME280;64005;55.160;36.002;2023-07-28T20:41:14;98239.94;;;16.46;76.55
75424;BME280;64005;55.160;36.002;2023-07-28T20:43:44;98242.34;;;16.47;76.75
75424;BME280;64005;55.160;36.002;2023-07-28T20:46:11;98238.72;;;16.47;76.77
75424;BME280;64005;55.160;36.002;2023-07-28T20:48:39;98249.56;;;16.48;76.73
75424;BME280;64005;55.160;36.002;2023-07-28T20:51:07;98239.13;;;16.45;76.75
75424;BME280;64005;55.160;36.002;2023-07-28T20:53:35;98251.94;;;16.43;76.83
75424;BME280;64005;55.160;36.002;2023-07-28T20:56:02;98243.13;;;16.41;76.57
75424;BME280;64005;55.160;36.002;2023-07-28T20:58:32;98245.91;;;16.41;76.91
75424;BME280;64005;55.160;36.002;2023-07-28T21:00:59;98249.50;;;16.34;76.92
75424;BME280;64005;55.160;36.002;2023-07-28T21:03:27;98251.88;;;16.32;77.01
75424;BME280;64005;55.160;36.002;2023-07-28T21:05:55;98242.66;;;16.28;77.27
75424;BME280;64005;55.160;36.002;2023-07-28T21:08:22;98241.84;;;16.27;77.10
75424;BME280;64005;55.160;36.002;2023-07-28T21:10:50;98249.84;;;16.29;76.88
75424;BME280;64005;55.160;36.002;2023-07-28T21:13:21;98243.47;;;16.28;77.14
75424;BME280;64005;55.160;36.002;2023-07-28T21:15:51;98252.66;;;16.29;77.29
75424;BME280;64005;55.160;36.002;2023-07-28T21:18:19;98247.44;;;16.27;76.95
75424;BME280;64005;55.160;36.002;2023-07-28T21:20:47;98254.25;;;16.26;77.25
75424;BME280;64005;55.160;36.002;2023-07-28T21:23:15;98249.44;;;16.27;77.27
75424;BME280;64005;55.160;36.002;2023-07-28T21:25:42;98262.63;;;16.23;77.25
75424;BME280;64005;55.160;36.002;2023-07-28T21:28:10;98258.22;;;16.18;77.54
75424;BME280;64005;55.160;36.002;2023-07-28T21:30:38;98264.63;;;16.22;77.33
75424;BME280;64005;55.160;36.002;2023-07-28T21:33:09;98272.28;;;16.25;77.28
75424;BME280;64005;55.160;36.002;2023-07-28T21:35:37;98272.28;;;16.29;77.02
75424;BME280;64005;55.160;36.002;2023-07-28T21:38:04;98278.34;;;16.31;77.04
75424;BME280;64005;55.160;36.002;2023-07-28T21:40:32;98286.38;;;16.33;76.92
75424;BME280;64005;55.160;36.002;2023-07-28T21:42:59;98280.72;;;16.29;77.19
75424;BME280;64005;55.160;36.002;2023-07-28T21:45:27;98287.56;;;16.28;77.21
75424;BME280;64005;55.160;36.002;2023-07-28T21:47:54;98278.72;;;16.26;77.26
75424;BME280;64005;55.160;36.002;2023-07-28T21:50:23;98287.13;;;16.26;77.16
75424;BME280;64005;55.160;36.002;2023-07-28T21:52:50;98279.09;;;16.24;77.30
75424;BME280;64005;55.160;36.002;2023-07-28T21:55:18;98277.09;;;16.21;77.16
75424;BME280;64005;55.160;36.002;2023-07-28T21:57:46;98263.41;;;16.16;77.26
75424;BME280;64005;55.160;36.002;2023-07-28T22:00:14;98269.44;;;16.15;77.34
75424;BME280;64005;55.160;36.002;2023-07-28T22:02:41;98269.00;;;16.13;77.44
75424;BME280;64005;55.160;36.002;2023-07-28T22:05:09;98274.19;;;16.11;77.60
75424;BME280;64005;55.160;36.002;2023-07-28T22:07:39;98274.19;;;16.11;77.56
75424;BME280;64005;55.160;36.002;2023-07-28T22:10:07;98272.22;;;16.15;77.38
75424;BME280;64005;55.160;36.002;2023-07-28T22:12:35;98276.25;;;16.17;77.43
75424;BME280;64005;55.160;36.002;2023-07-28T22:15:03;98273.44;;;16.17;77.39
75424;BME280;64005;55.160;36.002;2023-07-28T22:17:32;98274.25;;;16.18;77.55
75424;BME280;64005;55.160;36.002;2023-07-28T22:20:00;98266.16;;;16.09;77.44
75424;BME280;64005;55.160;36.002;2023-07-28T22:22:29;98275.81;;;16.12;77.50
75424;BME280;64005;55.160;36.002;2023-07-28T22:24:59;98281.00;;;16.10;77.67
75424;BME280;64005;55.160;36.002;2023-07-28T22:27:26;98270.56;;;16.10;77.51
75424;BME280;64005;55.160;36.002;2023-07-28T22:29:54;98264.16;;;16.10;77.56
75424;BME280;64005;55.160;36.002;2023-07-28T22:32:21;98272.19;;;16.11;77.61
75424;BME280;64005;55.160;36.002;2023-07-28T22:34:50;98268.19;;;16.09;77.51
75424;BME280;64005;55.160;36.002;2023-07-28T22:37:17;98261.75;;;16.08;77.58
75424;BME280;64005;55.160;36.002;2023-07-28T22:39:45;98261.75;;;16.08;77.63
75424;BME280;64005;55.160;36.002;2023-07-28T22:42:14;98264.53;;;16.05;77.73
75424;BME280;64005;55.160;36.002;2023-07-28T22:44:41;98251.69;;;16.00;77.81
75424;BME280;64005;55.160;36.002;2023-07-28T22:47:09;98256.88;;;15.98;77.75
75424;BME280;64005;55.160;36.002;2023-07-28T22:49:36;98246.84;;;15.97;77.83
75424;BME280;64005;55.160;36.002;2023-07-28T22:52:04;98258.06;;;15.97;77.78
75424;BME280;64005;55.160;36.002;2023-07-28T22:54:32;98255.63;;;15.96;77.85
75424;BME280;64005;55.160;36.002;2023-07-28T22:56:59;98264.47;;;15.98;77.92
75424;BME280;64005;55.160;36.002;2023-07-28T22:59:28;98267.28;;;15.94;77.83
75424;BME280;64005;55.160;36.002;2023-07-28T23:01:56;98268.03;;;15.91;77.90
75424;BME280;64005;55.160;36.002;2023-07-28T23:04:23;98274.81;;;15.86;78.03
75424;BME280;64005;55.160;36.002;2023-07-28T23:06:51;98276.78;;;15.82;78.10
75424;BME280;64005;55.160;36.002;2023-07-28T23:09:18;98277.19;;;15.81;78.00
75424;BME280;64005;55.160;36.002;2023-07-28T23:11:46;98270.78;;;15.80;78.17
75424;BME280;64005;55.160;36.002;2023-07-28T23:14:13;98264.72;;;15.75;78.18
75424;BME280;64005;55.160;36.002;2023-07-28T23:16:42;98265.06;;;15.70;78.32
75424;BME280;64005;55.160;36.002;2023-07-28T23:19:10;98257.44;;;15.67;78.34
75424;BME280;64005;55.160;36.002;2023-07-28T23:21:37;98260.19;;;15.63;78.58
75424;BME280;64005;55.160;36.002;2023-07-28T23:24:05;98263.81;;;15.64;78.54
75424;BME280;64005;55.160;36.002;2023-07-28T23:26:32;98261.00;;;15.60;78.49
75424;BME280;64005;55.160;36.002;2023-07-28T23:29:00;98260.19;;;15.60;78.56
75424;BME280;64005;55.160;36.002;2023-07-28T23:31:28;98264.97;;;15.59;78.66
75424;BME280;64005;55.160;36.002;2023-07-28T23:33:57;98268.16;;;15.58;78.56
75424;BME280;64005;55.160;36.002;2023-07-28T23:36:24;98269.34;;;15.57;78.57
75424;BME280;64005;55.160;36.002;2023-07-28T23:38:52;98272.16;;;15.57;78.53
75424;BME280;64005;55.160;36.002;2023-07-28T23:41:19;98272.13;;;15.53;78.55
75424;BME280;64005;55.160;36.002;2023-07-28T23:43:47;98271.25;;;15.49;78.69
75424;BME280;64005;55.160;36.002;2023-07-28T23:46:14;98279.25;;;15.47;78.67
75424;BME280;64005;55.160;36.002;2023-07-28T23:48:45;98265.19;;;15.43;78.68
75424;BME280;64005;55.160;36.002;2023-07-28T23:51:14;98269.53;;;15.37;78.71
75424;BME280;64005;55.160;36.002;2023-07-28T23:53:41;98271.47;;;15.30;78.89
75424;BME280;64005;55.160;36.002;2023-07-28T23:56:09;98266.28;;;15.28;78.99
75424;BME280;64005;55.160;36.002;2023-07-28T23:58:36;98271.81;;;15.25;78.85
